Aberdeen, United Kingdom

11:09 PM BST on May 06, 2015 (GMT +0100)
Stoneywood | | Change Station
CLOSE
Current Station
Personal Weather Station
Location: Aberdeen,
Elevation: 200 ft
Nearby Weather Stations

Elev 200 ft 57.19 °N, 2.18 °W | Updated 4 seconds ago

Partly Cloudy
Partly Cloudy
43.3 °F
Feels Like 41 °F
N
4.5
Wind Variable Wind from NW
Gusts 7.4 mph

Today
High -- | Low -- °F
--% Chance of Precip.
Yesterday
High -- | Low -- °F
Precip. -- in
5:09 AM 9:03 PM
Waning Gibbous, 92% visible
Pressure 29.53 in
Visibility 6.2 miles
Clouds Few 2000 ft
Windchill 41 °F
Dew Point 36 °F
Humidity 74%
Rainfall 0.00 in
Snow Depth Not available.
UV 0.0 out of 12
Pollen Not available.
Air Quality Not available.
Flu Activity Not available.
METAR EGPD 062150Z 30010KT 9999 FEW020 06/03 Q1000 NOSIG

More Conditions Fewer Conditions

Pressure 29.53 in
Visibility 6.2 miles
Clouds Few 2000 ft
Windchill 41 °F
Dew Point 36 °F
Humidity 74%
Rainfall 0.00 in
Snow Depth Not available.
UV 0.0 out of 12
Pollen Not available.
Air Quality Not available.
Flu Activity Not available.
METAR EGPD 062150Z 30010KT 9999 FEW020 06/03 Q1000 NOSIG

More Conditions Fewer Conditions

10-Day Weather Forecast

Almanac

Astronomy

May. 06, 2015 Rise Set
Actual Time
Civil Twilight
Nautical Twilight
Astronomical Twilight
Moon
Length of Visible Light
Length of Day
Tomorrow will be .
, % of the Moon is Illuminated

Today's Extremes

Country Highs Country Lows

Community

WunderPhotos

Upload Photos

1,819,026 photos uploaded!

WunderBlogs® & News

Nearby

Air Quality

  Air Quality AQ Index Pollutant
Not available.

Snow Depth

Station Depth Elevation

Earthquake Activity

City Distance Mag. Time & Date
Minimum magnitude displayed is 2.5.

Coastal Water Temperatures

Place Temperature

Stations

Nearby Weather Stations

Station Location Temp. Windchill Dew Point Humidity Wind Precip. Elev Updated Type